Terminal Aerodrome Forecast
Issued by NWS

Home | Current Version | Previous Version | Text Only | Print | Product List | Glossary On
Versions: 1 2 3 4 5 6 7 8 9 10 11 12 13 14 15 16 17 18 19 20 21 22 23 24 25 26 27 28 29 30 31 32 33 34 35 36 37
000
FTUS43 KDTX 301345 AAA
TAFYIP
TAF AMD
KYIP 301345Z 3014/3112 07015G25KT 2SM RA BR OVC040
      TEMPO 3014/3015 6SM TSRA OVC040CB
     FM301600 07014G22KT 4SM -SHRA BR BKN016 OVC030
     FM302000 06011G18KT 3SM SHRA BR BKN008 OVC012
      TEMPO 3021/3024 2SM TSRA BR BKN006 OVC010CB
     FM310300 05006KT 2SM -DZ BR OVC005
     FM311000 03004KT 1 1/2SM RA BR OVC004=

USA.gov is the U.S. government's official web portal to all federal, state and local government web resources and services.